sensor_id;sensor_type;location;lat;lon;timestamp;P1;durP1;ratioP1;P2;durP2;ratioP2
1276;SDS011;631;51.024;13.826;2022-10-22T00:02:16;35.00;;;25.90;;
1276;SDS011;631;51.024;13.826;2022-10-22T00:04:45;36.23;;;27.00;;
1276;SDS011;631;51.024;13.826;2022-10-22T00:07:11;39.27;;;28.87;;
1276;SDS011;631;51.024;13.826;2022-10-22T00:09:37;33.70;;;25.03;;
1276;SDS011;631;51.024;13.826;2022-10-22T00:12:03;37.40;;;27.93;;
1276;SDS011;631;51.024;13.826;2022-10-22T00:14:29;33.53;;;25.50;;
1276;SDS011;631;51.024;13.826;2022-10-22T00:16:54;34.77;;;26.50;;
1276;SDS011;631;51.024;13.826;2022-10-22T00:19:20;36.63;;;26.90;;
1276;SDS011;631;51.024;13.826;2022-10-22T00:21:46;37.10;;;26.90;;
1276;SDS011;631;51.024;13.826;2022-10-22T00:24:11;33.43;;;25.90;;
1276;SDS011;631;51.024;13.826;2022-10-22T00:26:37;34.47;;;26.17;;
1276;SDS011;631;51.024;13.826;2022-10-22T00:29:04;38.23;;;26.93;;
1276;SDS011;631;51.024;13.826;2022-10-22T00:31:30;38.07;;;26.50;;
1276;SDS011;631;51.024;13.826;2022-10-22T00:33:55;33.27;;;25.67;;
1276;SDS011;631;51.024;13.826;2022-10-22T00:36:21;34.43;;;26.93;;
1276;SDS011;631;51.024;13.826;2022-10-22T00:38:47;32.43;;;25.57;;
1276;SDS011;631;51.024;13.826;2022-10-22T00:41:12;36.20;;;26.20;;
1276;SDS011;631;51.024;13.826;2022-10-22T00:46:20;33.67;;;24.60;;
1276;SDS011;631;51.024;13.826;2022-10-22T00:48:46;34.07;;;25.90;;
1276;SDS011;631;51.024;13.826;2022-10-22T00:51:11;33.33;;;25.57;;
1276;SDS011;631;51.024;13.826;2022-10-22T00:53:44;34.73;;;25.60;;
1276;SDS011;631;51.024;13.826;2022-10-22T00:56:13;35.10;;;26.03;;
1276;SDS011;631;51.024;13.826;2022-10-22T00:59:00;35.30;;;26.23;;
1276;SDS011;631;51.024;13.826;2022-10-22T01:01:27;39.40;;;27.27;;
1276;SDS011;631;51.024;13.826;2022-10-22T01:03:55;37.60;;;28.07;;
1276;SDS011;631;51.024;13.826;2022-10-22T01:06:25;38.00;;;27.20;;
1276;SDS011;631;51.024;13.826;2022-10-22T01:14:16;38.23;;;28.60;;
1276;SDS011;631;51.024;13.826;2022-10-22T01:16:58;38.50;;;27.90;;
1276;SDS011;631;51.024;13.826;2022-10-22T01:24:56;39.23;;;28.47;;
1276;SDS011;631;51.024;13.826;2022-10-22T01:27:43;40.60;;;28.70;;
1276;SDS011;631;51.024;13.826;2022-10-22T01:30:17;39.97;;;28.70;;
1276;SDS011;631;51.024;13.826;2022-10-22T01:32:45;40.60;;;28.73;;
1276;SDS011;631;51.024;13.826;2022-10-22T01:35:16;39.60;;;28.40;;
1276;SDS011;631;51.024;13.826;2022-10-22T01:37:49;43.37;;;28.47;;
1276;SDS011;631;51.024;13.826;2022-10-22T01:40:18;41.07;;;30.40;;
1276;SDS011;631;51.024;13.826;2022-10-22T01:42:55;41.80;;;28.87;;
1276;SDS011;631;51.024;13.826;2022-10-22T01:45:21;39.77;;;28.93;;
1276;SDS011;631;51.024;13.826;2022-10-22T01:47:59;38.00;;;28.97;;
1276;SDS011;631;51.024;13.826;2022-10-22T01:58:51;36.83;;;27.60;;
1276;SDS011;631;51.024;13.826;2022-10-22T02:01:48;35.57;;;24.83;;
1276;SDS011;631;51.024;13.826;2022-10-22T02:04:27;32.17;;;25.20;;
1276;SDS011;631;51.024;13.826;2022-10-22T02:06:58;37.23;;;25.50;;
1276;SDS011;631;51.024;13.826;2022-10-22T02:09:28;34.97;;;25.47;;
1276;SDS011;631;51.024;13.826;2022-10-22T02:11:56;33.73;;;24.67;;
1276;SDS011;631;51.024;13.826;2022-10-22T02:14:23;33.80;;;24.93;;
1276;SDS011;631;51.024;13.826;2022-10-22T02:16:51;34.43;;;25.77;;
1276;SDS011;631;51.024;13.826;2022-10-22T02:22:17;36.73;;;26.97;;
1276;SDS011;631;51.024;13.826;2022-10-22T02:24:43;35.70;;;25.47;;
1276;SDS011;631;51.024;13.826;2022-10-22T02:32:29;31.20;;;24.10;;
1276;SDS011;631;51.024;13.826;2022-10-22T02:35:00;34.50;;;25.43;;
1276;SDS011;631;51.024;13.826;2022-10-22T02:37:28;35.57;;;26.70;;
1276;SDS011;631;51.024;13.826;2022-10-22T02:39:53;31.03;;;24.83;;
1276;SDS011;631;51.024;13.826;2022-10-22T02:42:20;35.57;;;24.73;;
1276;SDS011;631;51.024;13.826;2022-10-22T02:44:48;34.97;;;25.43;;
1276;SDS011;631;51.024;13.826;2022-10-22T02:47:14;34.73;;;25.00;;
1276;SDS011;631;51.024;13.826;2022-10-22T02:49:39;34.50;;;25.33;;
1276;SDS011;631;51.024;13.826;2022-10-22T02:52:05;37.73;;;25.80;;
1276;SDS011;631;51.024;13.826;2022-10-22T02:54:30;32.60;;;25.60;;
1276;SDS011;631;51.024;13.826;2022-10-22T02:56:56;36.80;;;26.73;;
1276;SDS011;631;51.024;13.826;2022-10-22T02:59:21;37.43;;;26.03;;
1276;SDS011;631;51.024;13.826;2022-10-22T03:01:47;34.80;;;25.57;;
1276;SDS011;631;51.024;13.826;2022-10-22T03:04:12;34.50;;;25.03;;
1276;SDS011;631;51.024;13.826;2022-10-22T03:06:38;38.13;;;27.57;;
1276;SDS011;631;51.024;13.826;2022-10-22T03:09:07;34.10;;;26.47;;
1276;SDS011;631;51.024;13.826;2022-10-22T03:11:33;33.60;;;25.33;;
1276;SDS011;631;51.024;13.826;2022-10-22T03:13:59;38.20;;;27.97;;
1276;SDS011;631;51.024;13.826;2022-10-22T03:16:24;38.80;;;26.10;;
1276;SDS011;631;51.024;13.826;2022-10-22T03:18:50;36.77;;;26.97;;
1276;SDS011;631;51.024;13.826;2022-10-22T03:23:43;34.53;;;25.60;;
1276;SDS011;631;51.024;13.826;2022-10-22T03:26:09;37.30;;;26.20;;
1276;SDS011;631;51.024;13.826;2022-10-22T03:28:38;35.40;;;27.20;;
1276;SDS011;631;51.024;13.826;2022-10-22T03:31:04;37.50;;;27.60;;
1276;SDS011;631;51.024;13.826;2022-10-22T03:33:30;36.90;;;27.90;;
1276;SDS011;631;51.024;13.826;2022-10-22T03:35:56;37.67;;;26.87;;
1276;SDS011;631;51.024;13.826;2022-10-22T03:38:21;37.40;;;27.50;;
1276;SDS011;631;51.024;13.826;2022-10-22T03:40:47;35.90;;;27.20;;
1276;SDS011;631;51.024;13.826;2022-10-22T03:43:13;38.13;;;27.00;;
1276;SDS011;631;51.024;13.826;2022-10-22T03:45:39;37.73;;;27.40;;
1276;SDS011;631;51.024;13.826;2022-10-22T03:48:04;39.30;;;26.43;;
1276;SDS011;631;51.024;13.826;2022-10-22T03:50:30;34.63;;;27.03;;
1276;SDS011;631;51.024;13.826;2022-10-22T03:52:56;34.97;;;27.40;;
1276;SDS011;631;51.024;13.826;2022-10-22T03:55:22;38.13;;;27.37;;
1276;SDS011;631;51.024;13.826;2022-10-22T03:57:48;38.97;;;28.30;;
1276;SDS011;631;51.024;13.826;2022-10-22T04:00:14;37.63;;;26.77;;
1276;SDS011;631;51.024;13.826;2022-10-22T04:02:40;38.80;;;27.37;;
1276;SDS011;631;51.024;13.826;2022-10-22T04:05:05;38.80;;;28.53;;
1276;SDS011;631;51.024;13.826;2022-10-22T04:07:31;37.03;;;26.87;;
1276;SDS011;631;51.024;13.826;2022-10-22T04:09:57;38.70;;;28.47;;
1276;SDS011;631;51.024;13.826;2022-10-22T04:12:22;37.40;;;27.33;;
1276;SDS011;631;51.024;13.826;2022-10-22T04:14:48;34.73;;;25.90;;
1276;SDS011;631;51.024;13.826;2022-10-22T04:17:14;40.77;;;28.80;;
1276;SDS011;631;51.024;13.826;2022-10-22T04:19:39;33.07;;;26.47;;
1276;SDS011;631;51.024;13.826;2022-10-22T04:22:05;33.83;;;24.80;;
1276;SDS011;631;51.024;13.826;2022-10-22T04:24:30;35.43;;;25.77;;
1276;SDS011;631;51.024;13.826;2022-10-22T04:26:56;33.67;;;25.30;;
1276;SDS011;631;51.024;13.826;2022-10-22T04:29:22;32.70;;;26.47;;
1276;SDS011;631;51.024;13.826;2022-10-22T04:31:48;35.67;;;27.03;;
1276;SDS011;631;51.024;13.826;2022-10-22T04:34:14;35.43;;;26.37;;
1276;SDS011;631;51.024;13.826;2022-10-22T04:36:39;38.23;;;27.80;;
1276;SDS011;631;51.024;13.826;2022-10-22T04:39:05;35.47;;;26.47;;
1276;SDS011;631;51.024;13.826;2022-10-22T04:41:32;38.57;;;28.50;;
1276;SDS011;631;51.024;13.826;2022-10-22T04:43:59;33.40;;;26.07;;
1276;SDS011;631;51.024;13.826;2022-10-22T04:46:26;35.13;;;26.97;;
1276;SDS011;631;51.024;13.826;2022-10-22T04:48:54;35.50;;;26.13;;
1276;SDS011;631;51.024;13.826;2022-10-22T04:51:20;34.70;;;26.50;;
1276;SDS011;631;51.024;13.826;2022-10-22T04:53:47;33.50;;;26.43;;
1276;SDS011;631;51.024;13.826;2022-10-22T04:56:20;32.90;;;25.30;;
1276;SDS011;631;51.024;13.826;2022-10-22T04:58:50;30.33;;;23.43;;
1276;SDS011;631;51.024;13.826;2022-10-22T05:01:21;31.63;;;25.20;;
1276;SDS011;631;51.024;13.826;2022-10-22T05:03:50;34.00;;;25.37;;
1276;SDS011;631;51.024;13.826;2022-10-22T05:06:16;36.27;;;25.17;;
1276;SDS011;631;51.024;13.826;2022-10-22T05:08:44;32.93;;;24.43;;
1276;SDS011;631;51.024;13.826;2022-10-22T05:11:17;33.90;;;25.50;;
1276;SDS011;631;51.024;13.826;2022-10-22T05:13:44;29.43;;;22.50;;
1276;SDS011;631;51.024;13.826;2022-10-22T05:16:11;33.10;;;24.57;;
1276;SDS011;631;51.024;13.826;2022-10-22T05:18:37;31.73;;;23.43;;
1276;SDS011;631;51.024;13.826;2022-10-22T05:21:11;32.93;;;24.13;;
1276;SDS011;631;51.024;13.826;2022-10-22T05:23:38;34.40;;;23.37;;
1276;SDS011;631;51.024;13.826;2022-10-22T05:26:05;32.40;;;24.53;;
1276;SDS011;631;51.024;13.826;2022-10-22T05:28:32;35.40;;;26.50;;
1276;SDS011;631;51.024;13.826;2022-10-22T05:30:58;31.50;;;24.27;;
1276;SDS011;631;51.024;13.826;2022-10-22T05:33:24;30.60;;;24.53;;
1276;SDS011;631;51.024;13.826;2022-10-22T05:35:51;29.73;;;25.00;;
1276;SDS011;631;51.024;13.826;2022-10-22T05:38:17;33.17;;;24.90;;
1276;SDS011;631;51.024;13.826;2022-10-22T05:40:42;30.50;;;23.93;;
1276;SDS011;631;51.024;13.826;2022-10-22T05:43:08;30.00;;;23.50;;
1276;SDS011;631;51.024;13.826;2022-10-22T05:45:40;32.57;;;25.40;;
1276;SDS011;631;51.024;13.826;2022-10-22T05:48:07;32.20;;;24.57;;
1276;SDS011;631;51.024;13.826;2022-10-22T05:50:36;31.67;;;23.03;;
1276;SDS011;631;51.024;13.826;2022-10-22T05:53:03;31.87;;;24.60;;
1276;SDS011;631;51.024;13.826;2022-10-22T05:55:30;30.83;;;22.90;;
1276;SDS011;631;51.024;13.826;2022-10-22T05:58:01;31.43;;;23.33;;
1276;SDS011;631;51.024;13.826;2022-10-22T06:00:27;31.03;;;23.67;;
1276;SDS011;631;51.024;13.826;2022-10-22T06:02:52;32.20;;;23.57;;
1276;SDS011;631;51.024;13.826;2022-10-22T06:05:18;32.30;;;23.07;;
1276;SDS011;631;51.024;13.826;2022-10-22T06:07:44;34.13;;;24.47;;
1276;SDS011;631;51.024;13.826;2022-10-22T06:10:12;30.30;;;23.00;;
1276;SDS011;631;51.024;13.826;2022-10-22T06:12:40;31.47;;;25.50;;
1276;SDS011;631;51.024;13.826;2022-10-22T06:15:06;31.37;;;23.97;;
1276;SDS011;631;51.024;13.826;2022-10-22T06:17:33;33.53;;;24.60;;
1276;SDS011;631;51.024;13.826;2022-10-22T06:19:59;28.77;;;22.77;;
1276;SDS011;631;51.024;13.826;2022-10-22T06:22:24;31.13;;;24.17;;
1276;SDS011;631;51.024;13.826;2022-10-22T06:24:50;33.60;;;23.87;;
1276;SDS011;631;51.024;13.826;2022-10-22T06:27:16;29.77;;;23.67;;
1276;SDS011;631;51.024;13.826;2022-10-22T06:29:41;30.57;;;23.03;;
1276;SDS011;631;51.024;13.826;2022-10-22T06:32:07;28.83;;;22.10;;
1276;SDS011;631;51.024;13.826;2022-10-22T06:34:33;27.77;;;23.07;;
1276;SDS011;631;51.024;13.826;2022-10-22T06:36:58;29.20;;;23.43;;
1276;SDS011;631;51.024;13.826;2022-10-22T06:39:24;28.03;;;23.50;;
1276;SDS011;631;51.024;13.826;2022-10-22T06:41:49;28.20;;;23.00;;
1276;SDS011;631;51.024;13.826;2022-10-22T06:44:15;30.00;;;24.00;;
1276;SDS011;631;51.024;13.826;2022-10-22T06:46:43;32.10;;;23.80;;
1276;SDS011;631;51.024;13.826;2022-10-22T06:49:10;29.77;;;24.10;;
1276;SDS011;631;51.024;13.826;2022-10-22T06:51:38;26.40;;;22.77;;
1276;SDS011;631;51.024;13.826;2022-10-22T06:54:03;28.40;;;23.20;;
1276;SDS011;631;51.024;13.826;2022-10-22T06:56:29;31.10;;;25.03;;
1276;SDS011;631;51.024;13.826;2022-10-22T06:58:56;32.83;;;24.07;;
1276;SDS011;631;51.024;13.826;2022-10-22T07:01:23;28.83;;;22.77;;
1276;SDS011;631;51.024;13.826;2022-10-22T07:03:50;32.20;;;24.10;;
1276;SDS011;631;51.024;13.826;2022-10-22T07:06:17;29.20;;;23.93;;
1276;SDS011;631;51.024;13.826;2022-10-22T07:08:43;27.60;;;22.07;;
1276;SDS011;631;51.024;13.826;2022-10-22T07:11:10;31.03;;;24.27;;
1276;SDS011;631;51.024;13.826;2022-10-22T07:13:37;29.00;;;23.00;;
1276;SDS011;631;51.024;13.826;2022-10-22T07:16:03;32.30;;;24.30;;
1276;SDS011;631;51.024;13.826;2022-10-22T07:18:30;32.70;;;23.40;;
1276;SDS011;631;51.024;13.826;2022-10-22T07:20:56;29.53;;;23.40;;
1276;SDS011;631;51.024;13.826;2022-10-22T07:23:22;30.07;;;23.50;;
1276;SDS011;631;51.024;13.826;2022-10-22T07:25:47;32.77;;;24.63;;
1276;SDS011;631;51.024;13.826;2022-10-22T07:28:13;31.93;;;24.27;;
1276;SDS011;631;51.024;13.826;2022-10-22T07:30:39;30.13;;;22.50;;
1276;SDS011;631;51.024;13.826;2022-10-22T07:33:05;31.60;;;23.10;;
1276;SDS011;631;51.024;13.826;2022-10-22T07:35:31;31.90;;;23.27;;
1276;SDS011;631;51.024;13.826;2022-10-22T07:37:58;30.27;;;23.00;;
1276;SDS011;631;51.024;13.826;2022-10-22T07:40:24;27.27;;;21.83;;
1276;SDS011;631;51.024;13.826;2022-10-22T07:42:50;29.17;;;20.90;;
1276;SDS011;631;51.024;13.826;2022-10-22T07:45:15;35.57;;;24.17;;
1276;SDS011;631;51.024;13.826;2022-10-22T07:47:41;26.90;;;22.37;;
1276;SDS011;631;51.024;13.826;2022-10-22T07:50:07;30.30;;;23.83;;
1276;SDS011;631;51.024;13.826;2022-10-22T07:52:33;30.87;;;23.43;;
1276;SDS011;631;51.024;13.826;2022-10-22T07:54:59;30.73;;;24.37;;
1276;SDS011;631;51.024;13.826;2022-10-22T07:57:24;34.90;;;26.67;;
1276;SDS011;631;51.024;13.826;2022-10-22T07:59:50;31.97;;;24.43;;
1276;SDS011;631;51.024;13.826;2022-10-22T08:02:15;35.97;;;26.63;;
1276;SDS011;631;51.024;13.826;2022-10-22T08:04:41;35.50;;;26.40;;
1276;SDS011;631;51.024;13.826;2022-10-22T08:07:06;35.57;;;25.60;;
1276;SDS011;631;51.024;13.826;2022-10-22T08:09:32;34.93;;;27.33;;
1276;SDS011;631;51.024;13.826;2022-10-22T08:11:58;37.03;;;27.73;;
1276;SDS011;631;51.024;13.826;2022-10-22T08:14:23;33.70;;;26.53;;
1276;SDS011;631;51.024;13.826;2022-10-22T08:16:49;34.70;;;27.37;;
1276;SDS011;631;51.024;13.826;2022-10-22T08:19:15;36.37;;;27.87;;
1276;SDS011;631;51.024;13.826;2022-10-22T08:21:45;36.40;;;27.13;;
1276;SDS011;631;51.024;13.826;2022-10-22T08:24:11;32.97;;;26.40;;
1276;SDS011;631;51.024;13.826;2022-10-22T08:26:37;37.67;;;27.17;;
1276;SDS011;631;51.024;13.826;2022-10-22T08:29:03;35.77;;;27.53;;
1276;SDS011;631;51.024;13.826;2022-10-22T08:31:29;35.77;;;27.60;;
1276;SDS011;631;51.024;13.826;2022-10-22T08:33:54;35.90;;;25.87;;
1276;SDS011;631;51.024;13.826;2022-10-22T08:36:20;37.50;;;25.97;;
1276;SDS011;631;51.024;13.826;2022-10-22T08:38:45;33.30;;;25.07;;
1276;SDS011;631;51.024;13.826;2022-10-22T08:41:12;30.50;;;23.97;;
1276;SDS011;631;51.024;13.826;2022-10-22T08:48:47;35.93;;;26.50;;
1276;SDS011;631;51.024;13.826;2022-10-22T08:51:20;35.83;;;27.37;;
1276;SDS011;631;51.024;13.826;2022-10-22T08:53:59;35.30;;;28.40;;
1276;SDS011;631;51.024;13.826;2022-10-22T08:57:10;37.33;;;27.17;;
1276;SDS011;631;51.024;13.826;2022-10-22T08:59:49;35.20;;;26.17;;
1276;SDS011;631;51.024;13.826;2022-10-22T09:05:58;38.13;;;28.10;;
1276;SDS011;631;51.024;13.826;2022-10-22T09:07:57;32.80;;;26.27;;
1276;SDS011;631;51.024;13.826;2022-10-22T09:10:28;34.40;;;26.57;;
1276;SDS011;631;51.024;13.826;2022-10-22T09:12:57;29.23;;;25.00;;
1276;SDS011;631;51.024;13.826;2022-10-22T09:15:22;31.17;;;24.40;;
1276;SDS011;631;51.024;13.826;2022-10-22T09:18:07;31.60;;;24.87;;
1276;SDS011;631;51.024;13.826;2022-10-22T09:20:49;34.13;;;25.33;;
1276;SDS011;631;51.024;13.826;2022-10-22T09:23:46;30.63;;;25.27;;
1276;SDS011;631;51.024;13.826;2022-10-22T09:26:18;28.83;;;23.97;;
1276;SDS011;631;51.024;13.826;2022-10-22T09:28:47;27.83;;;24.87;;
1276;SDS011;631;51.024;13.826;2022-10-22T09:31:14;31.53;;;24.77;;
1276;SDS011;631;51.024;13.826;2022-10-22T09:33:41;31.93;;;25.03;;
1276;SDS011;631;51.024;13.826;2022-10-22T09:36:12;31.43;;;24.80;;
1276;SDS011;631;51.024;13.826;2022-10-22T09:38:44;27.07;;;24.23;;
1276;SDS011;631;51.024;13.826;2022-10-22T09:41:12;28.93;;;24.57;;
1276;SDS011;631;51.024;13.826;2022-10-22T09:43:37;26.20;;;22.90;;
1276;SDS011;631;51.024;13.826;2022-10-22T09:46:04;29.50;;;25.13;;
1276;SDS011;631;51.024;13.826;2022-10-22T09:48:33;26.80;;;22.40;;
1276;SDS011;631;51.024;13.826;2022-10-22T09:51:19;26.07;;;22.50;;
1276;SDS011;631;51.024;13.826;2022-10-22T09:53:54;25.13;;;21.83;;
1276;SDS011;631;51.024;13.826;2022-10-22T09:56:32;26.13;;;22.40;;
1276;SDS011;631;51.024;13.826;2022-10-22T09:59:00;25.27;;;22.50;;
1276;SDS011;631;51.024;13.826;2022-10-22T10:01:28;22.30;;;19.90;;
1276;SDS011;631;51.024;13.826;2022-10-22T10:04:03;23.17;;;19.90;;
1276;SDS011;631;51.024;13.826;2022-10-22T10:06:30;19.70;;;17.60;;
1276;SDS011;631;51.024;13.826;2022-10-22T10:08:57;21.30;;;17.83;;
1276;SDS011;631;51.024;13.826;2022-10-22T10:11:42;19.40;;;17.40;;
1276;SDS011;631;51.024;13.826;2022-10-22T10:14:32;19.67;;;17.80;;
1276;SDS011;631;51.024;13.826;2022-10-22T10:23:03;15.40;;;13.90;;
1276;SDS011;631;51.024;13.826;2022-10-22T10:31:04;16.23;;;14.63;;
1276;SDS011;631;51.024;13.826;2022-10-22T10:33:38;16.00;;;14.40;;
1276;SDS011;631;51.024;13.826;2022-10-22T10:36:38;14.87;;;13.37;;
1276;SDS011;631;51.024;13.826;2022-10-22T10:42:07;14.37;;;12.57;;
1276;SDS011;631;51.024;13.826;2022-10-22T10:44:55;14.10;;;12.30;;
1276;SDS011;631;51.024;13.826;2022-10-22T10:47:45;13.50;;;12.20;;
1276;SDS011;631;51.024;13.826;2022-10-22T10:50:25;12.40;;;11.20;;
1276;SDS011;631;51.024;13.826;2022-10-22T10:53:06;11.87;;;10.83;;
1276;SDS011;631;51.024;13.826;2022-10-22T10:56:00;11.70;;;10.50;;
1276;SDS011;631;51.024;13.826;2022-10-22T10:58:43;10.93;;;10.03;;
1276;SDS011;631;51.024;13.826;2022-10-22T11:02:08;10.50;;;9.60;;
1276;SDS011;631;51.024;13.826;2022-10-22T11:04:18;11.90;;;9.90;;
1276;SDS011;631;51.024;13.826;2022-10-22T11:07:08;10.57;;;9.60;;
1276;SDS011;631;51.024;13.826;2022-10-22T11:09:41;10.83;;;9.83;;
1276;SDS011;631;51.024;13.826;2022-10-22T11:12:24;9.83;;;8.93;;
1276;SDS011;631;51.024;13.826;2022-10-22T11:15:14;10.33;;;9.50;;
1276;SDS011;631;51.024;13.826;2022-10-22T11:17:50;10.00;;;9.10;;
1276;SDS011;631;51.024;13.826;2022-10-22T11:20:29;9.13;;;8.43;;
1276;SDS011;631;51.024;13.826;2022-10-22T11:23:12;10.97;;;8.47;;
1276;SDS011;631;51.024;13.826;2022-10-22T11:25:45;10.93;;;10.13;;
1276;SDS011;631;51.024;13.826;2022-10-22T11:28:20;8.93;;;8.23;;
1276;SDS011;631;51.024;13.826;2022-10-22T11:30:56;9.67;;;8.97;;
1276;SDS011;631;51.024;13.826;2022-10-22T11:33:27;8.90;;;8.30;;
1276;SDS011;631;51.024;13.826;2022-10-22T11:36:14;9.17;;;8.37;;
1276;SDS011;631;51.024;13.826;2022-10-22T11:38:42;10.20;;;9.20;;
1276;SDS011;631;51.024;13.826;2022-10-22T11:41:10;11.90;;;10.30;;
1276;SDS011;631;51.024;13.826;2022-10-22T11:46:44;10.27;;;9.37;;
1276;SDS011;631;51.024;13.826;2022-10-22T11:49:18;11.37;;;10.37;;
1276;SDS011;631;51.024;13.826;2022-10-22T11:51:48;12.93;;;11.63;;
1276;SDS011;631;51.024;13.826;2022-10-22T11:59:48;13.70;;;12.40;;
1276;SDS011;631;51.024;13.826;2022-10-22T12:07:52;15.33;;;13.83;;
1276;SDS011;631;51.024;13.826;2022-10-22T12:10:28;14.10;;;12.80;;
1276;SDS011;631;51.024;13.826;2022-10-22T12:13:23;13.10;;;11.90;;
1276;SDS011;631;51.024;13.826;2022-10-22T12:15:52;12.50;;;11.40;;
1276;SDS011;631;51.024;13.826;2022-10-22T12:18:22;12.13;;;10.90;;
1276;SDS011;631;51.024;13.826;2022-10-22T12:20:51;12.83;;;11.63;;
1276;SDS011;631;51.024;13.826;2022-10-22T12:23:18;13.43;;;12.17;;
1276;SDS011;631;51.024;13.826;2022-10-22T12:25:48;12.37;;;11.27;;
1276;SDS011;631;51.024;13.826;2022-10-22T12:28:13;11.80;;;10.70;;
1276;SDS011;631;51.024;13.826;2022-10-22T12:30:40;13.10;;;11.80;;
1276;SDS011;631;51.024;13.826;2022-10-22T12:33:06;11.90;;;10.80;;
1276;SDS011;631;51.024;13.826;2022-10-22T12:35:42;11.53;;;10.43;;
1276;SDS011;631;51.024;13.826;2022-10-22T12:38:20;10.77;;;9.57;;
1276;SDS011;631;51.024;13.826;2022-10-22T12:40:48;10.77;;;9.87;;
1276;SDS011;631;51.024;13.826;2022-10-22T12:43:16;9.37;;;8.57;;
1276;SDS011;631;51.024;13.826;2022-10-22T12:45:43;8.50;;;7.70;;
1276;SDS011;631;51.024;13.826;2022-10-22T12:48:15;8.67;;;7.87;;
1276;SDS011;631;51.024;13.826;2022-10-22T12:50:49;8.60;;;7.90;;
1276;SDS011;631;51.024;13.826;2022-10-22T12:55:53;10.03;;;9.10;;
1276;SDS011;631;51.024;13.826;2022-10-22T12:58:26;8.30;;;7.43;;
1276;SDS011;631;51.024;13.826;2022-10-22T13:00:56;9.13;;;8.43;;
1276;SDS011;631;51.024;13.826;2022-10-22T13:06:10;7.77;;;7.27;;
1276;SDS011;631;51.024;13.826;2022-10-22T13:08:54;7.77;;;7.27;;
1276;SDS011;631;51.024;13.826;2022-10-22T13:11:23;7.93;;;7.23;;
1276;SDS011;631;51.024;13.826;2022-10-22T13:14:02;8.90;;;8.20;;
1276;SDS011;631;51.024;13.826;2022-10-22T13:16:29;7.97;;;7.40;;
1276;SDS011;631;51.024;13.826;2022-10-22T13:18:56;8.17;;;7.57;;
1276;SDS011;631;51.024;13.826;2022-10-22T13:23:53;7.10;;;6.60;;
1276;SDS011;631;51.024;13.826;2022-10-22T13:26:20;8.10;;;7.40;;
1276;SDS011;631;51.024;13.826;2022-10-22T13:28:50;8.00;;;7.40;;
1276;SDS011;631;51.024;13.826;2022-10-22T13:31:18;7.97;;;7.47;;
1276;SDS011;631;51.024;13.826;2022-10-22T13:33:54;7.83;;;7.20;;
1276;SDS011;631;51.024;13.826;2022-10-22T13:36:22;8.80;;;8.00;;
1276;SDS011;631;51.024;13.826;2022-10-22T13:38:48;8.13;;;7.53;;
1276;SDS011;631;51.024;13.826;2022-10-22T13:41:24;7.37;;;6.87;;
1276;SDS011;631;51.024;13.826;2022-10-22T13:43:51;8.30;;;7.60;;
1276;SDS011;631;51.024;13.826;2022-10-22T13:46:19;8.93;;;8.27;;
1276;SDS011;631;51.024;13.826;2022-10-22T13:48:45;8.17;;;7.57;;
1276;SDS011;631;51.024;13.826;2022-10-22T13:51:16;8.90;;;8.30;;
1276;SDS011;631;51.024;13.826;2022-10-22T13:53:44;9.50;;;8.80;;
1276;SDS011;631;51.024;13.826;2022-10-22T13:56:14;9.03;;;8.43;;
1276;SDS011;631;51.024;13.826;2022-10-22T13:58:42;9.20;;;8.50;;
1276;SDS011;631;51.024;13.826;2022-10-22T14:01:27;9.23;;;8.53;;
1276;SDS011;631;51.024;13.826;2022-10-22T14:03:56;8.63;;;8.03;;
1276;SDS011;631;51.024;13.826;2022-10-22T14:06:24;9.07;;;8.37;;
1276;SDS011;631;51.024;13.826;2022-10-22T14:08:56;8.70;;;8.00;;
1276;SDS011;631;51.024;13.826;2022-10-22T14:11:26;9.20;;;8.50;;
1276;SDS011;631;51.024;13.826;2022-10-22T14:13:54;9.20;;;8.60;;
1276;SDS011;631;51.024;13.826;2022-10-22T14:16:23;10.33;;;9.53;;
1276;SDS011;631;51.024;13.826;2022-10-22T14:18:51;9.43;;;8.83;;
1276;SDS011;631;51.024;13.826;2022-10-22T14:21:17;9.87;;;9.07;;
1276;SDS011;631;51.024;13.826;2022-10-22T14:23:45;10.13;;;9.43;;
1276;SDS011;631;51.024;13.826;2022-10-22T14:26:17;9.97;;;9.27;;
1276;SDS011;631;51.024;13.826;2022-10-22T14:28:47;11.03;;;10.27;;
1276;SDS011;631;51.024;13.826;2022-10-22T14:31:13;10.83;;;10.03;;
1276;SDS011;631;51.024;13.826;2022-10-22T14:33:39;12.23;;;11.23;;
1276;SDS011;631;51.024;13.826;2022-10-22T14:36:04;11.97;;;11.00;;
1276;SDS011;631;51.024;13.826;2022-10-22T14:38:30;10.70;;;9.83;;
1276;SDS011;631;51.024;13.826;2022-10-22T14:40:56;11.23;;;10.33;;
1276;SDS011;631;51.024;13.826;2022-10-22T14:43:27;11.53;;;10.63;;
1276;SDS011;631;51.024;13.826;2022-10-22T14:45:55;11.33;;;10.43;;
1276;SDS011;631;51.024;13.826;2022-10-22T14:48:21;12.70;;;11.40;;
1276;SDS011;631;51.024;13.826;2022-10-22T14:50:47;12.40;;;11.30;;
1276;SDS011;631;51.024;13.826;2022-10-22T14:53:13;10.77;;;9.70;;
1276;SDS011;631;51.024;13.826;2022-10-22T14:55:41;12.20;;;11.10;;
1276;SDS011;631;51.024;13.826;2022-10-22T14:58:08;12.70;;;11.50;;
1276;SDS011;631;51.024;13.826;2022-10-22T15:00:34;12.23;;;11.03;;
1276;SDS011;631;51.024;13.826;2022-10-22T15:03:01;12.93;;;11.80;;
1276;SDS011;631;51.024;13.826;2022-10-22T15:05:27;13.53;;;12.23;;
1276;SDS011;631;51.024;13.826;2022-10-22T15:07:52;14.30;;;13.00;;
1276;SDS011;631;51.024;13.826;2022-10-22T15:10:18;12.73;;;11.73;;
1276;SDS011;631;51.024;13.826;2022-10-22T15:12:44;13.10;;;11.90;;
1276;SDS011;631;51.024;13.826;2022-10-22T15:15:09;13.03;;;11.83;;
1276;SDS011;631;51.024;13.826;2022-10-22T15:17:35;14.17;;;12.87;;
1276;SDS011;631;51.024;13.826;2022-10-22T15:20:00;13.33;;;12.03;;
1276;SDS011;631;51.024;13.826;2022-10-22T15:22:28;14.37;;;13.07;;
1276;SDS011;631;51.024;13.826;2022-10-22T15:24:55;14.70;;;13.40;;
1276;SDS011;631;51.024;13.826;2022-10-22T15:27:21;14.60;;;13.23;;
1276;SDS011;631;51.024;13.826;2022-10-22T15:29:47;14.10;;;12.80;;
1276;SDS011;631;51.024;13.826;2022-10-22T15:32:13;15.87;;;14.37;;
1276;SDS011;631;51.024;13.826;2022-10-22T15:34:38;16.17;;;14.67;;
1276;SDS011;631;51.024;13.826;2022-10-22T15:37:08;16.30;;;14.80;;
1276;SDS011;631;51.024;13.826;2022-10-22T15:39:39;15.67;;;14.17;;
1276;SDS011;631;51.024;13.826;2022-10-22T15:42:06;16.17;;;14.67;;
1276;SDS011;631;51.024;13.826;2022-10-22T15:44:32;17.67;;;16.00;;
1276;SDS011;631;51.024;13.826;2022-10-22T15:46:57;19.50;;;17.60;;
1276;SDS011;631;51.024;13.826;2022-10-22T15:49:25;18.10;;;16.30;;
1276;SDS011;631;51.024;13.826;2022-10-22T15:51:51;18.67;;;16.77;;
1276;SDS011;631;51.024;13.826;2022-10-22T15:54:22;21.30;;;19.20;;
1276;SDS011;631;51.024;13.826;2022-10-22T15:56:52;26.63;;;18.90;;
1276;SDS011;631;51.024;13.826;2022-10-22T15:59:18;20.70;;;18.50;;
1276;SDS011;631;51.024;13.826;2022-10-22T16:01:44;21.50;;;19.30;;
1276;SDS011;631;51.024;13.826;2022-10-22T16:04:10;23.43;;;20.13;;
1276;SDS011;631;51.024;13.826;2022-10-22T16:06:37;23.87;;;21.27;;
1276;SDS011;631;51.024;13.826;2022-10-22T16:09:08;22.17;;;19.87;;
1276;SDS011;631;51.024;13.826;2022-10-22T16:11:36;25.83;;;21.57;;
1276;SDS011;631;51.024;13.826;2022-10-22T16:14:03;24.47;;;21.87;;
1276;SDS011;631;51.024;13.826;2022-10-22T16:16:30;24.20;;;21.80;;
1276;SDS011;631;51.024;13.826;2022-10-22T16:18:57;22.77;;;20.30;;
1276;SDS011;631;51.024;13.826;2022-10-22T16:21:22;24.10;;;21.60;;